Time;durP1;ratioP1;P1;durP2;ratioP2;P2;SDS_P1;SDS_P2;PMS_P1;PMS_P2;Temp;Humidity;BMP_temperature;BMP_pressure;BME280_temperature;BME280_humidity;BME280_pressure;Samples;Min_cycle;Max_cycle;Signal;HPM_P1;HPM_P2
2024/01/13 00:02:21;;;;;;;5.70;2.45;;;3.70;99.90;;;;;;5034372;28;20136;-75
2024/01/13 00:04:47;;;;;;;3.42;1.83;;;3.70;99.90;;;;;;5030653;28;20050;-75
2024/01/13 00:07:12;;;;;;;1.05;0.98;;;3.70;99.90;;;;;;5032970;28;20488;-75
2024/01/13 00:09:38;;;;;;;5.80;2.92;;;3.70;99.90;;;;;;5019382;28;20049;-75
2024/01/13 00:12:04;;;;;;;6.13;1.88;;;3.70;99.90;;;;;;5024763;28;20045;-75
2024/01/13 00:14:30;;;;;;;2.42;1.15;;;3.70;99.90;;;;;;5025347;28;20053;-75
2024/01/13 00:16:55;;;;;;;1.15;1.00;;;3.70;99.90;;;;;;5025437;28;20049;-77
2024/01/13 00:19:21;;;;;;;3.13;1.25;;;3.70;99.90;;;;;;5018447;28;20057;-75
2024/01/13 00:21:46;;;;;;;1.20;1.10;;;3.70;99.90;;;;;;5025815;28;20503;-75
2024/01/13 00:24:12;;;;;;;1.77;0.95;;;3.70;99.90;;;;;;5038460;28;20500;-75
2024/01/13 00:26:38;;;;;;;4.15;0.82;;;3.70;99.90;;;;;;5044000;28;20079;-75
2024/01/13 00:29:03;;;;;;;3.17;0.82;;;3.70;99.90;;;;;;5043203;28;20060;-74
2024/01/13 00:31:29;;;;;;;1.27;0.70;;;3.70;99.90;;;;;;5027320;28;20045;-75
2024/01/13 00:33:54;;;;;;;1.70;0.60;;;3.70;99.90;;;;;;5042285;28;20083;-75
2024/01/13 00:36:20;;;;;;;0.63;0.40;;;3.70;99.90;;;;;;5030866;28;20050;-75
2024/01/13 00:38:46;;;;;;;1.35;0.90;;;3.70;99.90;;;;;;5023848;28;20514;-75
2024/01/13 00:41:11;;;;;;;0.75;0.75;;;3.70;99.90;;;;;;5022436;28;20043;-76
2024/01/13 00:43:37;;;;;;;4.35;1.00;;;3.80;99.90;;;;;;5024585;28;20041;-74
2024/01/13 00:46:03;;;;;;;1.50;1.40;;;3.80;99.90;;;;;;5035695;28;20534;-74
2024/01/13 00:48:29;;;;;;;1.23;0.70;;;3.80;99.90;;;;;;5041587;28;20045;-74
2024/01/13 00:50:54;;;;;;;2.22;1.10;;;3.80;99.90;;;;;;5038218;28;20060;-74
2024/01/13 00:53:20;;;;;;;2.47;1.35;;;3.80;99.90;;;;;;5044101;28;20051;-75
2024/01/13 00:55:46;;;;;;;1.23;1.02;;;3.80;99.90;;;;;;5043438;28;20537;-74
2024/01/13 00:58:11;;;;;;;0.68;0.68;;;3.80;99.90;;;;;;5042151;28;20470;-75
2024/01/13 01:00:37;;;;;;;1.48;1.27;;;3.80;99.90;;;;;;5034367;28;20457;-74
2024/01/13 01:03:02;;;;;;;0.65;0.65;;;3.80;99.90;;;;;;5027403;28;20046;-74
2024/01/13 01:05:28;;;;;;;0.60;0.60;;;3.80;99.90;;;;;;5025646;28;20052;-74
2024/01/13 01:07:54;;;;;;;1.05;0.77;;;3.90;99.90;;;;;;5035974;28;20051;-75
2024/01/13 01:10:20;;;;;;;0.60;0.40;;;3.90;99.90;;;;;;5040625;28;20053;-74
2024/01/13 01:12:45;;;;;;;1.10;0.88;;;3.80;99.90;;;;;;5032534;28;20073;-74
2024/01/13 01:15:11;;;;;;;3.47;1.13;;;3.80;99.90;;;;;;5039728;28;20075;-74
2024/01/13 01:17:37;;;;;;;0.70;0.70;;;3.80;99.90;;;;;;5035111;28;20056;-74
2024/01/13 01:20:02;;;;;;;0.65;0.63;;;3.90;99.90;;;;;;5022951;28;20042;-74
2024/01/13 01:22:28;;;;;;;1.55;0.70;;;3.90;99.90;;;;;;5022848;28;20574;-74
2024/01/13 01:24:54;;;;;;;1.35;1.15;;;3.90;99.90;;;;;;5026640;28;20041;-75
2024/01/13 01:27:19;;;;;;;0.90;0.77;;;3.90;99.90;;;;;;5025210;28;20048;-74
2024/01/13 01:29:45;;;;;;;12.63;1.45;;;3.90;99.90;;;;;;5034867;28;20491;-74
2024/01/13 01:32:11;;;;;;;0.50;0.50;;;3.90;99.90;;;;;;5022371;28;20056;-74
2024/01/13 01:34:36;;;;;;;0.73;0.52;;;3.90;99.90;;;;;;5034486;28;20471;-75
2024/01/13 01:37:02;;;;;;;1.30;0.25;;;3.90;99.90;;;;;;5042610;28;20124;-74
2024/01/13 01:39:27;;;;;;;1.52;1.38;;;3.90;99.90;;;;;;5033785;28;20052;-74
2024/01/13 01:41:53;;;;;;;0.47;0.32;;;3.90;99.90;;;;;;5022670;28;20049;-74
2024/01/13 01:44:18;;;;;;;0.32;0.32;;;3.90;99.90;;;;;;5032408;28;20045;-74
2024/01/13 01:46:46;;;;;;;5.75;0.77;;;3.90;99.90;;;;;;5027186;28;20072;-74
2024/01/13 01:49:14;;;;;;;1.13;0.90;;;3.80;99.90;;;;;;5024409;28;20132;-74
2024/01/13 01:51:40;;;;;;;1.13;0.90;;;3.80;99.90;;;;;;5024053;28;20045;-75
2024/01/13 01:54:06;;;;;;;0.40;0.40;;;3.80;99.90;;;;;;5023613;28;20486;-74
2024/01/13 01:56:34;;;;;;;1.55;0.40;;;3.80;99.90;;;;;;5029278;28;20048;-74
2024/01/13 01:59:02;;;;;;;0.75;0.65;;;3.70;99.90;;;;;;5028579;28;20120;-74
2024/01/13 02:01:30;;;;;;;1.60;0.65;;;3.70;99.90;;;;;;5033098;28;20516;-74
2024/01/13 02:03:57;;;;;;;1.42;0.73;;;3.70;99.90;;;;;;5032718;28;20077;-74
2024/01/13 02:06:24;;;;;;;0.43;0.30;;;3.70;99.90;;;;;;5029578;28;20045;-75
2024/01/13 02:11:19;;;;;;;1.15;0.30;;;3.70;99.90;;;;;;5011421;28;20054;-75
2024/01/13 02:13:46;;;;;;;2.58;1.08;;;3.70;99.90;;;;;;5005012;28;20057;-75
2024/01/13 02:16:12;;;;;;;0.60;0.60;;;3.70;99.90;;;;;;5001525;28;20068;-75
2024/01/13 02:18:38;;;;;;;2.50;0.30;;;3.70;99.90;;;;;;5009035;28;20042;-74
2024/01/13 02:21:04;;;;;;;0.88;0.60;;;3.70;99.90;;;;;;5003313;28;20048;-74
2024/01/13 02:23:29;;;;;;;1.23;1.13;;;3.70;99.90;;;;;;5017104;28;20583;-74
2024/01/13 02:25:56;;;;;;;1.35;1.02;;;3.70;99.90;;;;;;4994649;28;20394;-75
2024/01/13 02:28:21;;;;;;;0.98;0.70;;;3.70;99.90;;;;;;5018919;28;20072;-75
2024/01/13 02:30:47;;;;;;;1.08;0.65;;;3.70;99.90;;;;;;5001219;28;20380;-75
2024/01/13 02:33:12;;;;;;;1.23;1.13;;;3.70;99.90;;;;;;5002256;28;20144;-75
2024/01/13 02:35:38;;;;;;;3.53;0.93;;;3.70;99.90;;;;;;5003197;28;20095;-74
2024/01/13 02:38:04;;;;;;;0.98;0.98;;;3.70;99.90;;;;;;5004246;28;20041;-74
2024/01/13 02:40:29;;;;;;;2.53;0.93;;;3.60;99.90;;;;;;4984670;28;20447;-74
2024/01/13 02:42:55;;;;;;;1.38;0.88;;;3.60;99.90;;;;;;5003019;28;20041;-75
2024/01/13 02:45:20;;;;;;;1.25;1.15;;;3.60;99.90;;;;;;4995161;28;20059;-75
2024/01/13 02:48:03;;;;;;;3.72;0.80;;;3.60;99.90;;;;;;5003564;28;20045;-75
2024/01/13 02:50:28;;;;;;;1.50;1.13;;;3.60;99.90;;;;;;5003562;28;20448;-74
2024/01/13 02:52:54;;;;;;;0.90;0.90;;;3.60;99.90;;;;;;4985493;28;20060;-75
2024/01/13 02:55:19;;;;;;;4.35;0.95;;;3.60;99.90;;;;;;5002886;28;20497;-74
2024/01/13 02:57:45;;;;;;;1.50;1.10;;;3.60;99.90;;;;;;5004238;28;20041;-75
2024/01/13 03:00:13;;;;;;;2.00;1.33;;;3.60;99.90;;;;;;4997393;28;20052;-74
2024/01/13 03:02:39;;;;;;;1.55;0.73;;;3.60;99.90;;;;;;5018292;28;20045;-74
2024/01/13 03:05:07;;;;;;;0.98;0.95;;;3.60;99.90;;;;;;5021953;28;20045;-74
2024/01/13 03:07:33;;;;;;;0.65;0.65;;;3.60;99.90;;;;;;4999163;28;20077;-74
2024/01/13 03:10:01;;;;;;;1.92;1.42;;;3.60;99.90;;;;;;4993998;28;20080;-74
2024/01/13 03:12:26;;;;;;;0.40;0.40;;;3.60;99.90;;;;;;5004373;28;20049;-74
2024/01/13 03:14:52;;;;;;;2.97;0.90;;;3.60;99.90;;;;;;5022157;28;20407;-75
2024/01/13 03:17:17;;;;;;;1.85;1.33;;;3.60;99.90;;;;;;5004145;28;20056;-74
2024/01/13 03:19:43;;;;;;;1.30;0.98;;;3.60;99.90;;;;;;5022241;28;20530;-74
2024/01/13 03:22:09;;;;;;;1.13;1.00;;;3.70;99.90;;;;;;5021860;28;20049;-74
2024/01/13 03:24:34;;;;;;;0.65;0.65;;;3.70;99.90;;;;;;5004059;28;20037;-74
2024/01/13 03:27:00;;;;;;;1.55;0.65;;;3.70;99.90;;;;;;5021372;28;20038;-75
2024/01/13 03:29:25;;;;;;;3.00;0.50;;;3.70;99.90;;;;;;5021780;28;20041;-74
2024/01/13 03:31:51;;;;;;;0.88;0.85;;;3.70;99.90;;;;;;5000713;28;20091;-75
2024/01/13 03:34:16;;;;;;;1.38;1.23;;;3.70;99.90;;;;;;5007209;28;20048;-75
2024/01/13 03:36:42;;;;;;;1.77;0.90;;;3.70;99.90;;;;;;5003877;28;20046;-74
2024/01/13 03:39:09;;;;;;;0.88;0.73;;;3.70;99.90;;;;;;4983592;28;20528;-75
2024/01/13 03:41:35;;;;;;;3.50;0.68;;;3.70;99.90;;;;;;5006916;28;20395;-74
2024/01/13 03:44:00;;;;;;;2.22;1.00;;;3.70;99.90;;;;;;5021519;28;20041;-75
2024/01/13 03:46:26;;;;;;;0.95;0.68;;;3.80;99.90;;;;;;5008339;28;20435;-75
2024/01/13 03:48:52;;;;;;;0.50;0.50;;;3.80;99.90;;;;;;5023551;28;20033;-75
2024/01/13 03:51:18;;;;;;;0.55;0.55;;;3.80;99.90;;;;;;4999587;28;20065;-75
2024/01/13 03:53:43;;;;;;;0.65;0.47;;;3.80;99.90;;;;;;5001097;28;20049;-75
2024/01/13 03:56:09;;;;;;;1.23;0.70;;;3.80;99.90;;;;;;5006384;28;20448;-75
2024/01/13 03:58:35;;;;;;;5.03;0.73;;;3.80;99.90;;;;;;5008409;28;20513;-74
2024/01/13 04:01:02;;;;;;;3.45;1.23;;;3.80;99.90;;;;;;5007154;28;20168;-74
2024/01/13 04:03:28;;;;;;;1.23;0.65;;;3.80;99.90;;;;;;4991969;28;20585;-75
2024/01/13 04:05:53;;;;;;;0.68;0.47;;;3.80;99.90;;;;;;5006945;28;20033;-74
2024/01/13 04:08:21;;;;;;;2.72;0.68;;;3.80;99.90;;;;;;5026099;28;20128;-74
2024/01/13 04:10:47;;;;;;;2.03;1.05;;;3.80;99.90;;;;;;5006031;28;20052;-74
2024/01/13 04:13:13;;;;;;;0.30;0.30;;;3.80;99.90;;;;;;5007769;28;20050;-74
2024/01/13 04:15:39;;;;;;;0.63;0.63;;;3.80;99.90;;;;;;5007037;28;20072;-74
2024/01/13 04:18:05;;;;;;;1.95;0.93;;;3.80;99.90;;;;;;5024887;28;20065;-74
2024/01/13 04:20:31;;;;;;;0.22;0.22;;;3.70;99.90;;;;;;5007209;28;20466;-75
2024/01/13 04:22:56;;;;;;;2.50;0.70;;;3.70;99.90;;;;;;5006790;28;20061;-74
2024/01/13 04:25:22;;;;;;;0.38;0.38;;;3.70;99.90;;;;;;5006506;28;20049;-75
2024/01/13 04:27:48;;;;;;;0.82;0.60;;;3.70;99.90;;;;;;5008055;28;20045;-74
2024/01/13 04:30:14;;;;;;;0.75;0.70;;;3.70;99.90;;;;;;5025122;28;20049;-74
2024/01/13 04:32:40;;;;;;;1.25;0.77;;;3.70;99.90;;;;;;5006996;28;20053;-75
2024/01/13 04:35:06;;;;;;;1.55;0.40;;;3.60;99.90;;;;;;5024862;28;20095;-75
2024/01/13 04:37:32;;;;;;;0.40;0.40;;;3.70;99.90;;;;;;5007005;28;20106;-74
2024/01/13 04:39:57;;;;;;;0.88;0.77;;;3.70;99.90;;;;;;5006194;28;20041;-74
2024/01/13 04:42:23;;;;;;;3.60;0.85;;;3.60;99.90;;;;;;5016816;28;20046;-74
2024/01/13 04:44:48;;;;;;;0.45;0.45;;;3.60;99.90;;;;;;5005701;28;20049;-75
2024/01/13 04:47:14;;;;;;;0.68;0.65;;;3.60;99.90;;;;;;4994159;28;20041;-75
2024/01/13 04:49:40;;;;;;;0.90;0.90;;;3.60;99.90;;;;;;5024821;28;20061;-75
2024/01/13 04:52:05;;;;;;;1.42;0.40;;;3.60;99.90;;;;;;5006855;28;20463;-75
2024/01/13 04:54:31;;;;;;;0.20;0.20;;;3.70;99.90;;;;;;5006091;28;20044;-74
2024/01/13 04:56:57;;;;;;;0.88;0.88;;;3.70;99.90;;;;;;5006145;28;20550;-75
2024/01/13 04:59:22;;;;;;;0.65;0.65;;;3.70;99.90;;;;;;4989160;28;20045;-74
2024/01/13 05:01:48;;;;;;;0.30;0.30;;;3.70;99.90;;;;;;5015232;28;20530;-75
2024/01/13 05:04:13;;;;;;;1.55;0.28;;;3.70;99.90;;;;;;5006417;28;20506;-74
2024/01/13 05:06:39;;;;;;;0.43;0.43;;;3.70;99.90;;;;;;5006551;28;20119;-74
2024/01/13 05:09:04;;;;;;;0.20;0.20;;;3.70;99.90;;;;;;5023139;28;20063;-75
2024/01/13 05:11:30;;;;;;;0.45;0.10;;;3.70;99.90;;;;;;5024218;28;20428;-74
2024/01/13 05:13:56;;;;;;;0.30;0.30;;;3.70;99.90;;;;;;5004094;28;20081;-74
2024/01/13 05:16:21;;;;;;;0.77;0.50;;;3.70;99.90;;;;;;5021219;28;20048;-75
2024/01/13 05:18:47;;;;;;;1.30;0.82;;;3.70;99.90;;;;;;5025029;28;20045;-75
2024/01/13 05:21:13;;;;;;;0.20;0.20;;;3.70;99.90;;;;;;5005610;28;20064;-74
2024/01/13 05:23:38;;;;;;;0.20;0.20;;;3.70;99.90;;;;;;5006393;28;20128;-74
2024/01/13 05:26:04;;;;;;;0.73;0.70;;;3.70;99.90;;;;;;5023018;28;20095;-75
2024/01/13 05:28:29;;;;;;;0.70;0.65;;;3.70;99.90;;;;;;5006368;28;20106;-75
2024/01/13 05:30:55;;;;;;;0.25;0.25;;;3.70;99.90;;;;;;5005316;28;20056;-75
2024/01/13 05:33:21;;;;;;;0.20;0.17;;;3.70;99.90;;;;;;5006080;28;20132;-74
2024/01/13 05:35:46;;;;;;;1.20;0.80;;;3.70;99.90;;;;;;5024539;28;20037;-75
2024/01/13 05:38:12;;;;;;;0.15;0.15;;;3.70;99.90;;;;;;5005932;28;20223;-75
2024/01/13 05:40:41;;;;;;;1.55;0.40;;;3.70;99.90;;;;;;5022829;28;20045;-74
2024/01/13 05:43:07;;;;;;;0.40;0.17;;;3.70;99.90;;;;;;4989783;28;20074;-75
2024/01/13 05:45:33;;;;;;;0.13;0.13;;;3.70;99.90;;;;;;5002003;28;20507;-74
2024/01/13 05:48:00;;;;;;;0.00;0.00;;;3.70;99.90;;;;;;5023189;28;20056;-75
2024/01/13 05:50:27;;;;;;;0.65;0.50;;;3.70;99.90;;;;;;4991352;28;20049;-74
2024/01/13 05:52:53;;;;;;;0.13;0.13;;;3.70;99.90;;;;;;4998309;28;20088;-74
2024/01/13 05:55:18;;;;;;;0.15;0.00;;;3.70;99.90;;;;;;5005629;28;20080;-74
2024/01/13 05:57:44;;;;;;;3.75;0.20;;;3.70;99.90;;;;;;5013183;28;20077;-74
2024/01/13 06:00:10;;;;;;;0.52;0.20;;;3.70;99.90;;;;;;5022233;28;20049;-75
2024/01/13 06:02:35;;;;;;;0.10;0.10;;;3.70;99.90;;;;;;5005509;28;20679;-74
2024/01/13 06:05:01;;;;;;;0.10;0.10;;;3.70;99.90;;;;;;4998722;28;20050;-74
2024/01/13 06:07:27;;;;;;;0.32;0.20;;;3.70;99.90;;;;;;5023155;28;20076;-74
2024/01/13 06:09:52;;;;;;;0.22;0.22;;;3.70;99.90;;;;;;5003412;28;20053;-74
2024/01/13 06:12:18;;;;;;;0.05;0.03;;;3.70;99.90;;;;;;5006128;28;20095;-74
2024/01/13 06:14:43;;;;;;;0.15;0.15;;;3.70;99.90;;;;;;5023117;28;20045;-74
2024/01/13 06:17:09;;;;;;;1.20;0.57;;;3.70;99.90;;;;;;5023060;28;20046;-74
2024/01/13 06:19:35;;;;;;;0.30;0.30;;;3.70;99.90;;;;;;5023164;28;20047;-74
2024/01/13 06:22:01;;;;;;;2.13;0.47;;;3.70;99.90;;;;;;5004737;28;20463;-74
2024/01/13 06:24:27;;;;;;;0.63;0.63;;;3.70;99.90;;;;;;5019418;28;20073;-74
2024/01/13 06:26:52;;;;;;;0.30;0.20;;;3.70;99.90;;;;;;5016455;28;20038;-74
2024/01/13 06:29:18;;;;;;;0.70;0.70;;;3.70;99.90;;;;;;5023147;28;20045;-74
2024/01/13 06:31:43;;;;;;;0.43;0.20;;;3.70;99.90;;;;;;5004936;28;20037;-75
2024/01/13 06:34:09;;;;;;;0.25;0.20;;;3.70;99.90;;;;;;5005232;28;20056;-74
2024/01/13 06:36:35;;;;;;;0.35;0.20;;;3.60;99.90;;;;;;5005328;28;20049;-74
2024/01/13 06:39:01;;;;;;;0.60;0.60;;;3.70;99.90;;;;;;5021451;28;20402;-74
2024/01/13 06:41:26;;;;;;;1.75;1.08;;;3.60;99.90;;;;;;5005500;28;20523;-75
2024/01/13 06:43:52;;;;;;;0.73;0.73;;;3.70;99.90;;;;;;5004352;28;20050;-75
2024/01/13 06:46:17;;;;;;;0.82;0.82;;;3.80;99.90;;;;;;5023284;28;20041;-75
2024/01/13 06:48:44;;;;;;;3.67;1.00;;;3.70;99.90;;;;;;5021439;28;20084;-75
2024/01/13 06:51:09;;;;;;;3.65;1.08;;;3.80;99.90;;;;;;4990019;28;20617;-77
2024/01/13 06:53:35;;;;;;;7.43;2.40;;;3.80;99.90;;;;;;5021153;28;20033;-76
2024/01/13 06:56:00;;;;;;;2.50;1.92;;;3.80;99.90;;;;;;5005039;28;20045;-76
2024/01/13 06:58:26;;;;;;;2.45;1.63;;;3.80;99.90;;;;;;5004241;28;20057;-76
2024/01/13 07:00:51;;;;;;;3.10;2.72;;;3.80;99.90;;;;;;5002573;28;20045;-76
2024/01/13 07:03:17;;;;;;;4.00;3.42;;;3.80;99.90;;;;;;5004938;28;20041;-76
2024/01/13 07:05:42;;;;;;;4.03;3.72;;;3.80;99.90;;;;;;4994362;28;20046;-76
2024/01/13 07:08:08;;;;;;;3.92;3.67;;;3.80;99.90;;;;;;5011895;28;20042;-75
2024/01/13 07:10:34;;;;;;;8.38;5.55;;;3.80;99.90;;;;;;5021305;28;20144;-76
2024/01/13 07:13:00;;;;;;;7.82;6.53;;;3.90;99.90;;;;;;5004305;28;20091;-75
2024/01/13 07:15:25;;;;;;;10.77;8.18;;;3.90;99.90;;;;;;5022571;28;20053;-76
2024/01/13 07:17:52;;;;;;;11.48;8.43;;;3.90;99.90;;;;;;5004706;28;20048;-76
2024/01/13 07:20:17;;;;;;;15.30;7.78;;;3.90;99.90;;;;;;4987872;28;20124;-74
2024/01/13 07:22:43;;;;;;;13.27;9.90;;;3.90;99.90;;;;;;4999171;28;20166;-75
2024/01/13 07:25:09;;;;;;;11.05;10.13;;;3.90;99.90;;;;;;4998335;28;20114;-75
2024/01/13 07:27:34;;;;;;;10.77;9.45;;;3.90;99.90;;;;;;5009081;28;20043;-75
2024/01/13 07:30:01;;;;;;;12.70;9.10;;;3.90;99.90;;;;;;5021453;28;20038;-75
2024/01/13 07:32:26;;;;;;;10.73;8.35;;;3.90;99.90;;;;;;5003769;28;20128;-75
2024/01/13 07:34:52;;;;;;;13.05;8.70;;;3.90;99.90;;;;;;4986981;28;20371;-75
2024/01/13 07:37:18;;;;;;;9.25;7.32;;;3.90;99.90;;;;;;5014844;28;20076;-75
2024/01/13 07:39:44;;;;;;;10.80;9.57;;;3.90;99.90;;;;;;5001820;28;20044;-75
2024/01/13 07:42:10;;;;;;;9.43;7.60;;;3.90;99.90;;;;;;5020720;28;20053;-75
2024/01/13 07:44:35;;;;;;;11.90;7.78;;;3.90;99.90;;;;;;5021978;28;20033;-75
2024/01/13 07:47:03;;;;;;;11.73;8.95;;;3.90;99.90;;;;;;5003992;28;20397;-75
2024/01/13 07:49:29;;;;;;;11.10;9.98;;;3.90;99.90;;;;;;4988039;28;20542;-75
2024/01/13 07:51:56;;;;;;;11.15;9.35;;;3.90;99.90;;;;;;5003374;28;20068;-75
2024/01/13 07:54:24;;;;;;;12.90;8.80;;;3.90;99.90;;;;;;5001348;28;20053;-75
2024/01/13 07:56:52;;;;;;;11.18;9.57;;;3.90;99.90;;;;;;5019208;28;20042;-75
2024/01/13 07:59:17;;;;;;;10.27;7.65;;;3.90;99.90;;;;;;5020027;28;20049;-75
2024/01/13 08:01:44;;;;;;;17.33;10.55;;;3.90;99.90;;;;;;5009303;28;20626;-75
2024/01/13 08:04:09;;;;;;;11.45;9.70;;;3.90;99.90;;;;;;5021186;28;20508;-75
2024/01/13 08:06:35;;;;;;;12.07;10.77;;;3.90;99.90;;;;;;5004055;28;20087;-75
2024/01/13 08:09:03;;;;;;;15.45;10.02;;;3.90;99.90;;;;;;5001683;28;20396;-75
2024/01/13 08:11:29;;;;;;;14.20;10.88;;;3.90;99.90;;;;;;5021243;28;20612;-75
2024/01/13 08:13:55;;;;;;;19.73;13.80;;;3.90;99.90;;;;;;5003611;28;20045;-75
2024/01/13 08:16:21;;;;;;;14.63;12.48;;;3.90;99.90;;;;;;5003993;28;20050;-75
2024/01/13 08:18:46;;;;;;;19.23;13.35;;;3.90;99.90;;;;;;5017372;28;20046;-75
2024/01/13 08:21:12;;;;;;;14.23;11.98;;;3.90;99.90;;;;;;5003757;28;20060;-75
2024/01/13 08:23:38;;;;;;;20.27;12.23;;;3.90;99.90;;;;;;5011740;28;20128;-75
2024/01/13 08:26:04;;;;;;;21.13;14.90;;;3.90;99.90;;;;;;4998060;28;20041;-76
2024/01/13 08:28:30;;;;;;;16.15;10.88;;;3.90;99.90;;;;;;4994622;28;20445;-76
2024/01/13 08:30:56;;;;;;;17.23;11.32;;;3.90;99.90;;;;;;5015288;28;20033;-76
2024/01/13 08:33:21;;;;;;;16.67;12.15;;;3.90;99.90;;;;;;5007739;28;20132;-76
2024/01/13 08:35:47;;;;;;;27.17;13.25;;;3.90;99.90;;;;;;5007624;28;20048;-75
2024/01/13 08:38:13;;;;;;;11.60;10.45;;;3.90;99.90;;;;;;5023123;28;20143;-75
2024/01/13 08:40:44;;;;;;;16.65;13.02;;;3.90;99.90;;;;;;5006944;28;20064;-76
2024/01/13 08:43:09;;;;;;;17.02;10.98;;;4.00;99.90;;;;;;5006512;28;20053;-75
2024/01/13 08:45:35;;;;;;;15.38;11.98;;;3.90;99.90;;;;;;5007112;28;20416;-76
2024/01/13 08:48:01;;;;;;;12.70;10.05;;;4.00;99.90;;;;;;5006155;28;20100;-75
2024/01/13 08:50:26;;;;;;;17.38;12.35;;;4.00;99.90;;;;;;5017469;28;20057;-75
2024/01/13 08:52:54;;;;;;;15.80;9.52;;;4.00;99.90;;;;;;5017170;28;20037;-75
2024/01/13 08:55:21;;;;;;;15.52;10.90;;;4.00;99.90;;;;;;5002566;28;20053;-75
2024/01/13 08:57:47;;;;;;;17.98;12.98;;;4.00;99.90;;;;;;4989906;28;20176;-75
2024/01/13 09:00:13;;;;;;;25.52;12.02;;;4.00;99.90;;;;;;4997881;28;20132;-75
2024/01/13 09:02:39;;;;;;;16.85;12.00;;;4.00;99.90;;;;;;5004722;28;20128;-77
2024/01/13 09:05:05;;;;;;;20.65;12.45;;;4.00;99.90;;;;;;4986688;28;20580;-75
2024/01/13 09:07:32;;;;;;;18.48;14.88;;;4.00;99.90;;;;;;5004759;28;20053;-75
2024/01/13 09:09:58;;;;;;;15.18;10.35;;;4.00;99.90;;;;;;4992193;28;20049;-75
2024/01/13 09:12:24;;;;;;;12.50;9.93;;;4.00;99.90;;;;;;5004491;28;20400;-75
2024/01/13 09:14:49;;;;;;;14.80;11.68;;;4.00;99.90;;;;;;5004602;28;20117;-75
2024/01/13 09:17:15;;;;;;;16.08;11.30;;;4.00;99.90;;;;;;5004246;28;20121;-75
2024/01/13 09:19:40;;;;;;;19.02;12.95;;;4.00;99.90;;;;;;5003762;28;20105;-75
2024/01/13 09:22:06;;;;;;;19.58;11.65;;;4.00;99.90;;;;;;5003053;28;20038;-75
2024/01/13 09:24:31;;;;;;;15.93;9.32;;;4.00;99.90;;;;;;5001802;28;20129;-75
2024/01/13 09:26:57;;;;;;;21.27;10.30;;;4.00;99.90;;;;;;5002930;28;20481;-75
2024/01/13 09:29:22;;;;;;;11.32;10.23;;;4.00;99.90;;;;;;5004087;28;20431;-75
2024/01/13 09:31:51;;;;;;;14.45;8.77;;;4.00;99.90;;;;;;5003806;28;20097;-75
2024/01/13 09:34:17;;;;;;;8.75;7.05;;;4.00;99.90;;;;;;5001709;28;20049;-75
2024/01/13 09:36:44;;;;;;;11.98;5.57;;;4.00;99.90;;;;;;5000517;28;20092;-75
2024/01/13 09:39:10;;;;;;;11.88;7.93;;;4.00;99.90;;;;;;4990405;28;20050;-75
2024/01/13 09:41:37;;;;;;;7.25;5.00;;;4.00;99.90;;;;;;4998078;28;20403;-75
2024/01/13 09:44:22;;;;;;;7.63;3.97;;;4.00;99.90;;;;;;5001572;28;20050;-75
2024/01/13 09:46:53;;;;;;;6.85;5.03;;;4.10;99.90;;;;;;4985086;28;20042;-75
2024/01/13 09:49:20;;;;;;;7.97;4.47;;;4.10;99.90;;;;;;4990483;28;20050;-75
2024/01/13 09:51:46;;;;;;;7.57;5.03;;;4.10;99.90;;;;;;4999004;28;20427;-76
2024/01/13 09:54:16;;;;;;;8.07;4.95;;;4.10;99.90;;;;;;4994221;28;20724;-75
2024/01/13 09:56:47;;;;;;;9.77;4.55;;;4.10;99.90;;;;;;4997458;28;20045;-75
2024/01/13 09:59:12;;;;;;;13.20;5.88;;;4.10;99.90;;;;;;4991329;28;20160;-75
2024/01/13 10:01:38;;;;;;;8.40;5.60;;;4.10;99.90;;;;;;4999970;28;20183;-76
2024/01/13 10:04:04;;;;;;;7.70;4.38;;;4.10;99.90;;;;;;5002091;28;20037;-77
2024/01/13 10:06:33;;;;;;;10.80;7.72;;;4.10;99.90;;;;;;4997537;28;20528;-75
2024/01/13 10:09:00;;;;;;;6.57;5.03;;;4.10;99.90;;;;;;4997738;28;20069;-74
2024/01/13 10:11:25;;;;;;;7.55;5.93;;;4.20;99.90;;;;;;5013435;28;20042;-76
2024/01/13 10:14:01;;;;;;;7.28;6.07;;;4.20;99.90;;;;;;4985355;28;20460;-76
2024/01/13 10:16:32;;;;;;;9.73;5.40;;;4.20;99.90;;;;;;5004302;28;20076;-77
2024/01/13 10:19:02;;;;;;;9.18;5.85;;;4.20;99.90;;;;;;4988155;28;20033;-75
2024/01/13 10:21:28;;;;;;;19.10;5.93;;;4.20;99.90;;;;;;4988013;28;20064;-77
2024/01/13 10:23:55;;;;;;;7.50;5.82;;;4.20;99.90;;;;;;5002840;28;20049;-74
2024/01/13 10:26:21;;;;;;;8.52;5.43;;;4.20;99.90;;;;;;5004579;28;20052;-76
2024/01/13 10:28:48;;;;;;;9.52;6.43;;;4.20;99.90;;;;;;4999396;28;20490;-74
2024/01/13 10:31:15;;;;;;;5.50;4.50;;;4.30;99.90;;;;;;5000734;28;20042;-73
2024/01/13 10:33:44;;;;;;;12.90;5.97;;;4.30;99.90;;;;;;5004939;28;20037;-73
2024/01/13 10:36:10;;;;;;;15.35;5.70;;;4.30;99.90;;;;;;5004578;28;20476;-75
2024/01/13 10:38:39;;;;;;;5.85;4.25;;;4.30;99.90;;;;;;5004113;28;20444;-75
2024/01/13 10:41:07;;;;;;;5.68;4.95;;;4.30;99.90;;;;;;5004447;28;20503;-75
2024/01/13 10:43:35;;;;;;;8.90;4.43;;;4.30;99.90;;;;;;5003642;28;20041;-74
2024/01/13 10:46:03;;;;;;;9.32;5.20;;;4.30;99.90;;;;;;5005049;28;20053;-74
2024/01/13 10:48:37;;;;;;;6.30;3.72;;;4.30;99.90;;;;;;5004786;28;20037;-74
2024/01/13 10:51:04;;;;;;;8.55;3.67;;;4.40;99.90;;;;;;5001276;28;20061;-74
2024/01/13 10:53:31;;;;;;;13.40;5.72;;;4.40;99.90;;;;;;5007534;28;20120;-74
2024/01/13 10:55:57;;;;;;;4.20;3.67;;;4.40;99.90;;;;;;5007745;28;20452;-75
2024/01/13 10:58:24;;;;;;;7.30;4.40;;;4.40;99.90;;;;;;4999181;28;20572;-75
2024/01/13 11:00:51;;;;;;;12.40;4.25;;;4.40;99.90;;;;;;5003984;28;20599;-75
2024/01/13 11:03:21;;;;;;;8.00;3.33;;;4.40;99.90;;;;;;5004345;28;20048;-75
2024/01/13 11:05:46;;;;;;;7.10;3.42;;;4.40;99.90;;;;;;4997627;28;20046;-74
2024/01/13 11:08:13;;;;;;;4.03;2.58;;;4.50;99.90;;;;;;5020365;28;20095;-74
2024/01/13 11:10:44;;;;;;;5.47;2.72;;;4.50;99.90;;;;;;5002925;28;20205;-76
2024/01/13 11:13:25;;;;;;;3.45;2.47;;;4.60;99.90;;;;;;5004041;28;20057;-74
2024/01/13 11:16:08;;;;;;;5.93;3.33;;;4.60;99.90;;;;;;5003408;28;20306;-75
2024/01/13 11:18:40;;;;;;;12.93;5.82;;;4.60;99.90;;;;;;5003030;28;20083;-75
2024/01/13 11:21:07;;;;;;;7.75;4.38;;;4.70;99.90;;;;;;4990015;28;20045;-75
2024/01/13 11:24:01;;;;;;;5.15;2.53;;;4.70;99.90;;;;;;5002593;28;20466;-76
2024/01/13 11:26:45;;;;;;;4.25;2.88;;;4.70;99.90;;;;;;4978402;28;20044;-74
2024/01/13 11:29:27;;;;;;;3.03;2.33;;;4.70;99.90;;;;;;4997059;28;20374;-77
2024/01/13 11:31:57;;;;;;;6.90;2.95;;;4.70;99.90;;;;;;4999816;28;20293;-77
2024/01/13 11:34:23;;;;;;;2.67;1.52;;;4.80;99.90;;;;;;5021136;28;20037;-77
2024/01/13 11:36:56;;;;;;;1.00;0.90;;;4.80;99.90;;;;;;5007888;28;20559;-77
2024/01/13 11:39:22;;;;;;;3.60;1.25;;;4.90;99.90;;;;;;5017393;28;20029;-77
2024/01/13 11:41:55;;;;;;;1.48;1.38;;;4.90;99.90;;;;;;4999223;28;20068;-77
2024/01/13 11:44:34;;;;;;;2.00;0.73;;;4.90;99.90;;;;;;4984522;28;20093;-77
2024/01/13 11:47:10;;;;;;;0.93;0.75;;;5.00;99.90;;;;;;4981819;28;20040;-77
2024/01/13 11:49:38;;;;;;;1.15;1.05;;;5.00;99.90;;;;;;4983246;28;20132;-77
2024/01/13 11:52:05;;;;;;;2.55;1.83;;;5.00;99.90;;;;;;4994721;28;20542;-77
2024/01/13 11:54:32;;;;;;;3.10;1.58;;;5.00;99.90;;;;;;4986995;28;20049;-77
2024/01/13 11:57:00;;;;;;;1.38;1.25;;;5.00;99.90;;;;;;5020608;28;20069;-77
2024/01/13 11:59:25;;;;;;;3.78;1.20;;;5.00;99.90;;;;;;5003245;28;20128;-76
2024/01/13 12:01:54;;;;;;;1.15;1.00;;;5.00;99.90;;;;;;4983198;28;20133;-77
2024/01/13 12:04:19;;;;;;;2.80;0.98;;;5.10;99.90;;;;;;4999384;28;20447;-77
2024/01/13 12:06:46;;;;;;;3.05;1.17;;;5.10;99.90;;;;;;5015984;28;20103;-76
2024/01/13 12:09:13;;;;;;;1.73;0.80;;;5.10;99.90;;;;;;5002332;28;20333;-77
2024/01/13 12:11:52;;;;;;;3.35;1.25;;;5.10;99.90;;;;;;4986384;28;20085;-76
2024/01/13 12:14:17;;;;;;;2.75;1.45;;;5.10;99.90;;;;;;5002912;28;20115;-77
2024/01/13 12:16:43;;;;;;;2.35;1.05;;;5.20;99.90;;;;;;5021883;28;20073;-77
2024/01/13 12:19:08;;;;;;;0.70;0.70;;;5.20;99.90;;;;;;5007405;28;20316;-77
2024/01/13 12:21:36;;;;;;;3.47;1.15;;;5.20;99.90;;;;;;5006746;28;20053;-77
2024/01/13 12:24:02;;;;;;;0.93;0.73;;;5.30;99.90;;;;;;5005848;28;20114;-76
2024/01/13 12:26:29;;;;;;;3.10;0.57;;;5.30;99.90;;;;;;5024906;28;20110;-76
2024/01/13 12:28:56;;;;;;;1.65;0.80;;;5.30;99.90;;;;;;5022431;28;20122;-76
2024/01/13 12:31:22;;;;;;;1.13;0.47;;;5.40;99.90;;;;;;4983967;28;20045;-79
2024/01/13 12:33:48;;;;;;;1.60;1.05;;;5.40;99.90;;;;;;5006417;28;20051;-75
2024/01/13 12:36:13;;;;;;;9.80;1.30;;;5.40;99.90;;;;;;5018424;28;20442;-76
2024/01/13 12:38:39;;;;;;;3.40;0.63;;;5.40;99.90;;;;;;5004217;28;20567;-75
2024/01/13 12:41:08;;;;;;;0.60;0.60;;;5.50;99.90;;;;;;5021522;28;20037;-75
2024/01/13 12:43:36;;;;;;;1.23;0.63;;;5.40;99.90;;;;;;5018077;28;20037;-75
2024/01/13 12:46:03;;;;;;;6.50;1.20;;;5.50;99.90;;;;;;5003619;28;20041;-75
2024/01/13 12:48:28;;;;;;;0.63;0.63;;;5.50;99.90;;;;;;5021653;28;20475;-75
2024/01/13 12:50:54;;;;;;;1.77;0.95;;;5.50;99.90;;;;;;5003207;28;20049;-75
2024/01/13 12:53:26;;;;;;;1.92;0.50;;;5.50;99.90;;;;;;5021238;28;20073;-77